sensor_id;sensor_type;location;lat;lon;timestamp;P1;durP1;ratioP1;P2;durP2;ratioP2
73456;SDS011;61691;53.072;6.582;2023-10-19T00:01:08;24.98;;;12.18;;
73456;SDS011;61691;53.072;6.582;2023-10-19T00:03:37;22.65;;;11.65;;
73456;SDS011;61691;53.072;6.582;2023-10-19T00:06:04;25.55;;;12.35;;
73456;SDS011;61691;53.072;6.582;2023-10-19T00:08:32;24.92;;;12.77;;
73456;SDS011;61691;53.072;6.582;2023-10-19T00:11:08;24.70;;;12.68;;
73456;SDS011;61691;53.072;6.582;2023-10-19T00:13:37;23.13;;;11.88;;
73456;SDS011;61691;53.072;6.582;2023-10-19T00:16:08;23.05;;;12.07;;
73456;SDS011;61691;53.072;6.582;2023-10-19T00:18:48;25.73;;;11.88;;
73456;SDS011;61691;53.072;6.582;2023-10-19T00:21:16;24.17;;;12.68;;
73456;SDS011;61691;53.072;6.582;2023-10-19T00:23:56;25.30;;;12.98;;
73456;SDS011;61691;53.072;6.582;2023-10-19T00:26:28;25.63;;;13.27;;
73456;SDS011;61691;53.072;6.582;2023-10-19T00:28:56;24.15;;;12.63;;
73456;SDS011;61691;53.072;6.582;2023-10-19T00:31:24;25.25;;;13.48;;
73456;SDS011;61691;53.072;6.582;2023-10-19T00:33:54;26.27;;;13.38;;
73456;SDS011;61691;53.072;6.582;2023-10-19T00:36:22;25.63;;;13.15;;
73456;SDS011;61691;53.072;6.582;2023-10-19T00:38:50;25.42;;;13.55;;
73456;SDS011;61691;53.072;6.582;2023-10-19T00:41:20;24.05;;;13.57;;
73456;SDS011;61691;53.072;6.582;2023-10-19T00:43:54;25.02;;;12.90;;
73456;SDS011;61691;53.072;6.582;2023-10-19T00:46:29;27.15;;;13.65;;
73456;SDS011;61691;53.072;6.582;2023-10-19T00:49:04;27.48;;;13.60;;
73456;SDS011;61691;53.072;6.582;2023-10-19T00:51:34;26.05;;;14.02;;
73456;SDS011;61691;53.072;6.582;2023-10-19T00:54:07;26.30;;;13.48;;
73456;SDS011;61691;53.072;6.582;2023-10-19T00:56:53;26.73;;;14.43;;
73456;SDS011;61691;53.072;6.582;2023-10-19T00:59:25;26.60;;;14.25;;
73456;SDS011;61691;53.072;6.582;2023-10-19T01:01:57;26.83;;;15.27;;
73456;SDS011;61691;53.072;6.582;2023-10-19T01:04:44;28.42;;;14.77;;
73456;SDS011;61691;53.072;6.582;2023-10-19T01:07:12;27.40;;;15.18;;
73456;SDS011;61691;53.072;6.582;2023-10-19T01:09:48;25.88;;;15.18;;
73456;SDS011;61691;53.072;6.582;2023-10-19T01:12:19;26.42;;;13.27;;
73456;SDS011;61691;53.072;6.582;2023-10-19T01:15:19;24.73;;;13.27;;
73456;SDS011;61691;53.072;6.582;2023-10-19T01:17:56;25.60;;;13.77;;
73456;SDS011;61691;53.072;6.582;2023-10-19T01:20:25;27.65;;;14.25;;
73456;SDS011;61691;53.072;6.582;2023-10-19T01:22:56;27.92;;;15.20;;
73456;SDS011;61691;53.072;6.582;2023-10-19T01:25:49;28.10;;;15.07;;
73456;SDS011;61691;53.072;6.582;2023-10-19T01:28:20;28.15;;;13.48;;
73456;SDS011;61691;53.072;6.582;2023-10-19T01:30:52;25.70;;;14.00;;
73456;SDS011;61691;53.072;6.582;2023-10-19T01:33:19;26.20;;;15.55;;
73456;SDS011;61691;53.072;6.582;2023-10-19T01:35:46;26.42;;;14.52;;
73456;SDS011;61691;53.072;6.582;2023-10-19T01:38:32;25.95;;;14.32;;
73456;SDS011;61691;53.072;6.582;2023-10-19T01:41:00;27.30;;;16.13;;
73456;SDS011;61691;53.072;6.582;2023-10-19T01:43:32;28.75;;;15.60;;
73456;SDS011;61691;53.072;6.582;2023-10-19T01:45:59;28.10;;;15.07;;
73456;SDS011;61691;53.072;6.582;2023-10-19T01:48:38;25.73;;;14.25;;
73456;SDS011;61691;53.072;6.582;2023-10-19T01:51:09;26.20;;;15.32;;
73456;SDS011;61691;53.072;6.582;2023-10-19T01:53:37;30.67;;;15.77;;
73456;SDS011;61691;53.072;6.582;2023-10-19T01:56:13;28.58;;;15.00;;
73456;SDS011;61691;53.072;6.582;2023-10-19T01:58:41;27.42;;;14.80;;
73456;SDS011;61691;53.072;6.582;2023-10-19T02:01:10;27.00;;;15.68;;
73456;SDS011;61691;53.072;6.582;2023-10-19T02:03:37;27.20;;;15.38;;
73456;SDS011;61691;53.072;6.582;2023-10-19T02:06:08;25.67;;;14.48;;
73456;SDS011;61691;53.072;6.582;2023-10-19T02:08:54;27.13;;;15.82;;
73456;SDS011;61691;53.072;6.582;2023-10-19T02:11:43;25.93;;;14.30;;
73456;SDS011;61691;53.072;6.582;2023-10-19T02:14:14;26.50;;;14.95;;
73456;SDS011;61691;53.072;6.582;2023-10-19T02:16:43;27.25;;;14.70;;
73456;SDS011;61691;53.072;6.582;2023-10-19T02:19:10;26.70;;;14.82;;
73456;SDS011;61691;53.072;6.582;2023-10-19T02:21:37;26.75;;;13.93;;
73456;SDS011;61691;53.072;6.582;2023-10-19T02:24:07;26.25;;;14.43;;
73456;SDS011;61691;53.072;6.582;2023-10-19T02:26:34;24.92;;;13.15;;
73456;SDS011;61691;53.072;6.582;2023-10-19T02:29:03;26.80;;;14.52;;
73456;SDS011;61691;53.072;6.582;2023-10-19T02:31:36;27.17;;;15.75;;
73456;SDS011;61691;53.072;6.582;2023-10-19T02:36:31;25.05;;;13.65;;
73456;SDS011;61691;53.072;6.582;2023-10-19T02:38:59;25.88;;;14.02;;
73456;SDS011;61691;53.072;6.582;2023-10-19T02:41:27;24.98;;;13.70;;
73456;SDS011;61691;53.072;6.582;2023-10-19T02:43:55;25.83;;;14.15;;
73456;SDS011;61691;53.072;6.582;2023-10-19T02:46:33;25.38;;;13.30;;
73456;SDS011;61691;53.072;6.582;2023-10-19T02:49:01;26.50;;;13.02;;
73456;SDS011;61691;53.072;6.582;2023-10-19T02:51:32;25.00;;;13.43;;
73456;SDS011;61691;53.072;6.582;2023-10-19T02:53:59;24.77;;;12.07;;
73456;SDS011;61691;53.072;6.582;2023-10-19T02:56:28;23.67;;;12.23;;
73456;SDS011;61691;53.072;6.582;2023-10-19T02:58:58;23.60;;;11.88;;
73456;SDS011;61691;53.072;6.582;2023-10-19T03:01:28;24.95;;;12.65;;
73456;SDS011;61691;53.072;6.582;2023-10-19T03:03:58;27.40;;;12.65;;
73456;SDS011;61691;53.072;6.582;2023-10-19T03:06:30;25.90;;;12.90;;
73456;SDS011;61691;53.072;6.582;2023-10-19T03:08:59;23.88;;;12.13;;
73456;SDS011;61691;53.072;6.582;2023-10-19T03:11:45;21.98;;;11.48;;
73456;SDS011;61691;53.072;6.582;2023-10-19T03:14:12;22.08;;;11.43;;
73456;SDS011;61691;53.072;6.582;2023-10-19T03:16:40;23.60;;;12.50;;
73456;SDS011;61691;53.072;6.582;2023-10-19T03:19:09;22.65;;;10.77;;
73456;SDS011;61691;53.072;6.582;2023-10-19T03:21:36;24.45;;;12.50;;
73456;SDS011;61691;53.072;6.582;2023-10-19T03:24:16;22.30;;;11.68;;
73456;SDS011;61691;53.072;6.582;2023-10-19T03:26:54;23.95;;;11.93;;
73456;SDS011;61691;53.072;6.582;2023-10-19T03:29:25;24.15;;;11.23;;
73456;SDS011;61691;53.072;6.582;2023-10-19T03:31:58;21.48;;;11.10;;
73456;SDS011;61691;53.072;6.582;2023-10-19T03:34:28;23.08;;;11.98;;
73456;SDS011;61691;53.072;6.582;2023-10-19T03:37:00;22.13;;;10.65;;
73456;SDS011;61691;53.072;6.582;2023-10-19T03:39:33;22.58;;;10.77;;
73456;SDS011;61691;53.072;6.582;2023-10-19T03:42:04;21.08;;;10.73;;
73456;SDS011;61691;53.072;6.582;2023-10-19T03:44:34;21.52;;;10.45;;
73456;SDS011;61691;53.072;6.582;2023-10-19T03:47:16;21.83;;;10.30;;
73456;SDS011;61691;53.072;6.582;2023-10-19T03:49:47;21.35;;;9.68;;
73456;SDS011;61691;53.072;6.582;2023-10-19T03:52:15;22.25;;;10.50;;
73456;SDS011;61691;53.072;6.582;2023-10-19T03:54:42;22.35;;;10.55;;
73456;SDS011;61691;53.072;6.582;2023-10-19T03:57:13;23.23;;;9.93;;
73456;SDS011;61691;53.072;6.582;2023-10-19T03:59:46;22.67;;;9.70;;
73456;SDS011;61691;53.072;6.582;2023-10-19T04:02:19;20.23;;;9.32;;
73456;SDS011;61691;53.072;6.582;2023-10-19T04:04:48;21.77;;;9.88;;
73456;SDS011;61691;53.072;6.582;2023-10-19T04:07:15;20.50;;;9.55;;
73456;SDS011;61691;53.072;6.582;2023-10-19T04:09:49;21.13;;;9.45;;
73456;SDS011;61691;53.072;6.582;2023-10-19T04:12:35;20.85;;;9.52;;
73456;SDS011;61691;53.072;6.582;2023-10-19T04:15:04;22.23;;;10.43;;
73456;SDS011;61691;53.072;6.582;2023-10-19T04:17:43;22.60;;;10.25;;
73456;SDS011;61691;53.072;6.582;2023-10-19T04:20:16;20.42;;;9.65;;
73456;SDS011;61691;53.072;6.582;2023-10-19T04:22:44;19.85;;;9.45;;
73456;SDS011;61691;53.072;6.582;2023-10-19T04:25:12;20.45;;;9.30;;
73456;SDS011;61691;53.072;6.582;2023-10-19T04:27:39;19.65;;;8.50;;
73456;SDS011;61691;53.072;6.582;2023-10-19T04:30:09;19.20;;;8.10;;
73456;SDS011;61691;53.072;6.582;2023-10-19T04:32:42;19.33;;;8.73;;
73456;SDS011;61691;53.072;6.582;2023-10-19T04:35:10;19.08;;;8.20;;
73456;SDS011;61691;53.072;6.582;2023-10-19T04:37:40;19.83;;;8.70;;
73456;SDS011;61691;53.072;6.582;2023-10-19T04:40:11;19.05;;;7.82;;
73456;SDS011;61691;53.072;6.582;2023-10-19T04:42:38;18.55;;;7.82;;
73456;SDS011;61691;53.072;6.582;2023-10-19T04:45:05;19.52;;;8.07;;
73456;SDS011;61691;53.072;6.582;2023-10-19T04:47:33;18.58;;;7.65;;
73456;SDS011;61691;53.072;6.582;2023-10-19T04:50:02;19.60;;;8.02;;
73456;SDS011;61691;53.072;6.582;2023-10-19T04:52:29;18.48;;;7.63;;
73456;SDS011;61691;53.072;6.582;2023-10-19T04:54:57;19.42;;;7.75;;
73456;SDS011;61691;53.072;6.582;2023-10-19T04:57:25;19.15;;;8.00;;
73456;SDS011;61691;53.072;6.582;2023-10-19T04:59:52;17.45;;;7.10;;
73456;SDS011;61691;53.072;6.582;2023-10-19T05:02:19;18.30;;;7.70;;
73456;SDS011;61691;53.072;6.582;2023-10-19T05:04:46;19.13;;;7.72;;
73456;SDS011;61691;53.072;6.582;2023-10-19T05:07:13;103.65;;;11.68;;
73456;SDS011;61691;53.072;6.582;2023-10-19T05:09:43;134.18;;;14.32;;
73456;SDS011;61691;53.072;6.582;2023-10-19T05:12:11;18.02;;;7.18;;
73456;SDS011;61691;53.072;6.582;2023-10-19T05:14:41;21.90;;;8.38;;
73456;SDS011;61691;53.072;6.582;2023-10-19T05:17:09;18.42;;;7.30;;
73456;SDS011;61691;53.072;6.582;2023-10-19T05:19:37;18.85;;;7.45;;
73456;SDS011;61691;53.072;6.582;2023-10-19T05:22:05;18.45;;;6.88;;
73456;SDS011;61691;53.072;6.582;2023-10-19T05:24:33;65.13;;;12.13;;
73456;SDS011;61691;53.072;6.582;2023-10-19T05:27:01;17.88;;;7.07;;
73456;SDS011;61691;53.072;6.582;2023-10-19T05:29:30;20.02;;;8.10;;
73456;SDS011;61691;53.072;6.582;2023-10-19T05:31:59;17.90;;;7.20;;
73456;SDS011;61691;53.072;6.582;2023-10-19T05:34:27;164.80;;;13.70;;
73456;SDS011;61691;53.072;6.582;2023-10-19T05:36:56;19.00;;;6.93;;
73456;SDS011;61691;53.072;6.582;2023-10-19T05:39:25;17.25;;;6.30;;
73456;SDS011;61691;53.072;6.582;2023-10-19T05:41:54;17.90;;;6.40;;
73456;SDS011;61691;53.072;6.582;2023-10-19T05:44:21;17.52;;;6.53;;
73456;SDS011;61691;53.072;6.582;2023-10-19T05:46:51;16.92;;;6.40;;
73456;SDS011;61691;53.072;6.582;2023-10-19T05:49:18;40.03;;;7.63;;
73456;SDS011;61691;53.072;6.582;2023-10-19T05:51:46;18.23;;;6.63;;
73456;SDS011;61691;53.072;6.582;2023-10-19T05:54:13;16.48;;;5.65;;
73456;SDS011;61691;53.072;6.582;2023-10-19T05:56:39;16.88;;;5.95;;
73456;SDS011;61691;53.072;6.582;2023-10-19T05:59:06;16.35;;;5.88;;
73456;SDS011;61691;53.072;6.582;2023-10-19T06:01:33;17.10;;;5.53;;
73456;SDS011;61691;53.072;6.582;2023-10-19T06:04:00;16.42;;;5.97;;
73456;SDS011;61691;53.072;6.582;2023-10-19T06:06:27;17.00;;;5.82;;
73456;SDS011;61691;53.072;6.582;2023-10-19T06:08:54;19.88;;;5.93;;
73456;SDS011;61691;53.072;6.582;2023-10-19T06:11:21;16.98;;;5.88;;
73456;SDS011;61691;53.072;6.582;2023-10-19T06:13:47;16.65;;;6.20;;
73456;SDS011;61691;53.072;6.582;2023-10-19T06:16:14;16.73;;;6.00;;
73456;SDS011;61691;53.072;6.582;2023-10-19T06:18:43;16.15;;;5.65;;
73456;SDS011;61691;53.072;6.582;2023-10-19T06:21:10;16.65;;;5.90;;
73456;SDS011;61691;53.072;6.582;2023-10-19T06:23:38;17.63;;;6.28;;
73456;SDS011;61691;53.072;6.582;2023-10-19T06:26:09;16.25;;;5.88;;
73456;SDS011;61691;53.072;6.582;2023-10-19T06:28:39;16.67;;;5.72;;
73456;SDS011;61691;53.072;6.582;2023-10-19T06:31:07;16.00;;;5.97;;
73456;SDS011;61691;53.072;6.582;2023-10-19T06:33:35;15.88;;;5.57;;
73456;SDS011;61691;53.072;6.582;2023-10-19T06:36:03;15.20;;;4.90;;
73456;SDS011;61691;53.072;6.582;2023-10-19T06:38:30;17.13;;;6.38;;
73456;SDS011;61691;53.072;6.582;2023-10-19T06:40:58;17.33;;;5.45;;
73456;SDS011;61691;53.072;6.582;2023-10-19T06:43:26;15.15;;;4.95;;
73456;SDS011;61691;53.072;6.582;2023-10-19T06:45:59;16.92;;;5.07;;
73456;SDS011;61691;53.072;6.582;2023-10-19T06:48:26;16.52;;;5.38;;
73456;SDS011;61691;53.072;6.582;2023-10-19T06:50:53;16.85;;;5.63;;
73456;SDS011;61691;53.072;6.582;2023-10-19T06:53:22;16.30;;;5.38;;
73456;SDS011;61691;53.072;6.582;2023-10-19T06:55:49;16.33;;;5.60;;
73456;SDS011;61691;53.072;6.582;2023-10-19T06:58:16;15.35;;;5.15;;
73456;SDS011;61691;53.072;6.582;2023-10-19T07:00:46;17.92;;;5.53;;
73456;SDS011;61691;53.072;6.582;2023-10-19T07:03:22;16.27;;;5.25;;
73456;SDS011;61691;53.072;6.582;2023-10-19T07:05:51;15.60;;;4.95;;
73456;SDS011;61691;53.072;6.582;2023-10-19T07:08:19;15.60;;;4.70;;
73456;SDS011;61691;53.072;6.582;2023-10-19T07:10:47;15.40;;;4.68;;
73456;SDS011;61691;53.072;6.582;2023-10-19T07:13:16;14.02;;;3.90;;
73456;SDS011;61691;53.072;6.582;2023-10-19T07:15:47;14.93;;;4.47;;
73456;SDS011;61691;53.072;6.582;2023-10-19T07:18:18;13.80;;;4.10;;
73456;SDS011;61691;53.072;6.582;2023-10-19T07:20:45;14.30;;;4.32;;
73456;SDS011;61691;53.072;6.582;2023-10-19T07:23:15;14.57;;;4.13;;
73456;SDS011;61691;53.072;6.582;2023-10-19T07:25:46;14.07;;;4.03;;
73456;SDS011;61691;53.072;6.582;2023-10-19T07:28:15;13.82;;;4.00;;
73456;SDS011;61691;53.072;6.582;2023-10-19T07:30:42;13.77;;;4.00;;
73456;SDS011;61691;53.072;6.582;2023-10-19T07:33:10;14.05;;;4.10;;
73456;SDS011;61691;53.072;6.582;2023-10-19T07:35:44;14.45;;;4.25;;
73456;SDS011;61691;53.072;6.582;2023-10-19T07:38:13;13.23;;;3.58;;
73456;SDS011;61691;53.072;6.582;2023-10-19T07:40:41;16.52;;;6.93;;
73456;SDS011;61691;53.072;6.582;2023-10-19T07:43:10;17.70;;;7.72;;
73456;SDS011;61691;53.072;6.582;2023-10-19T07:45:36;16.10;;;6.25;;
73456;SDS011;61691;53.072;6.582;2023-10-19T07:48:04;14.90;;;5.05;;
73456;SDS011;61691;53.072;6.582;2023-10-19T07:50:37;15.10;;;4.88;;
73456;SDS011;61691;53.072;6.582;2023-10-19T07:53:07;15.70;;;5.47;;
73456;SDS011;61691;53.072;6.582;2023-10-19T07:55:35;14.13;;;4.38;;
73456;SDS011;61691;53.072;6.582;2023-10-19T07:58:04;14.95;;;5.43;;
73456;SDS011;61691;53.072;6.582;2023-10-19T08:00:32;12.98;;;3.85;;
73456;SDS011;61691;53.072;6.582;2023-10-19T08:03:02;17.37;;;5.50;;
73456;SDS011;61691;53.072;6.582;2023-10-19T08:05:31;14.65;;;5.38;;
73456;SDS011;61691;53.072;6.582;2023-10-19T08:08:00;14.80;;;4.85;;
73456;SDS011;61691;53.072;6.582;2023-10-19T08:10:30;15.37;;;5.07;;
73456;SDS011;61691;53.072;6.582;2023-10-19T08:12:57;23.00;;;5.95;;
73456;SDS011;61691;53.072;6.582;2023-10-19T08:15:26;14.63;;;4.97;;
73456;SDS011;61691;53.072;6.582;2023-10-19T08:17:55;15.75;;;5.00;;
73456;SDS011;61691;53.072;6.582;2023-10-19T08:20:22;14.38;;;4.25;;
73456;SDS011;61691;53.072;6.582;2023-10-19T08:22:51;14.93;;;4.70;;
73456;SDS011;61691;53.072;6.582;2023-10-19T08:25:18;15.68;;;5.53;;
73456;SDS011;61691;53.072;6.582;2023-10-19T08:27:45;15.98;;;5.60;;
73456;SDS011;61691;53.072;6.582;2023-10-19T08:30:15;15.63;;;5.50;;
73456;SDS011;61691;53.072;6.582;2023-10-19T08:32:51;15.82;;;5.10;;
73456;SDS011;61691;53.072;6.582;2023-10-19T08:35:19;16.70;;;5.55;;
73456;SDS011;61691;53.072;6.582;2023-10-19T08:37:55;15.90;;;5.55;;
73456;SDS011;61691;53.072;6.582;2023-10-19T08:40:26;15.32;;;4.95;;
73456;SDS011;61691;53.072;6.582;2023-10-19T08:42:54;16.42;;;5.13;;
73456;SDS011;61691;53.072;6.582;2023-10-19T08:45:21;16.13;;;5.22;;
73456;SDS011;61691;53.072;6.582;2023-10-19T08:47:56;15.90;;;5.30;;
73456;SDS011;61691;53.072;6.582;2023-10-19T08:50:26;16.60;;;6.07;;
73456;SDS011;61691;53.072;6.582;2023-10-19T08:52:56;15.63;;;5.82;;
73456;SDS011;61691;53.072;6.582;2023-10-19T08:55:24;18.95;;;6.47;;
73456;SDS011;61691;53.072;6.582;2023-10-19T08:58:11;17.77;;;6.28;;
73456;SDS011;61691;53.072;6.582;2023-10-19T09:00:47;16.42;;;6.10;;
73456;SDS011;61691;53.072;6.582;2023-10-19T09:03:16;16.33;;;6.25;;
73456;SDS011;61691;53.072;6.582;2023-10-19T09:05:46;17.85;;;6.47;;
73456;SDS011;61691;53.072;6.582;2023-10-19T09:08:14;20.15;;;7.00;;
73456;SDS011;61691;53.072;6.582;2023-10-19T09:10:44;17.52;;;6.63;;
73456;SDS011;61691;53.072;6.582;2023-10-19T09:13:14;17.45;;;7.00;;
73456;SDS011;61691;53.072;6.582;2023-10-19T09:15:46;17.60;;;6.85;;
73456;SDS011;61691;53.072;6.582;2023-10-19T09:18:19;19.58;;;7.10;;
73456;SDS011;61691;53.072;6.582;2023-10-19T09:20:51;17.00;;;6.65;;
73456;SDS011;61691;53.072;6.582;2023-10-19T09:23:20;17.90;;;7.40;;
73456;SDS011;61691;53.072;6.582;2023-10-19T09:25:52;17.70;;;6.80;;
73456;SDS011;61691;53.072;6.582;2023-10-19T09:28:20;78.05;;;48.10;;
73456;SDS011;61691;53.072;6.582;2023-10-19T09:30:48;40.50;;;25.58;;
73456;SDS011;61691;53.072;6.582;2023-10-19T09:33:16;36.08;;;23.38;;
73456;SDS011;61691;53.072;6.582;2023-10-19T09:35:45;31.98;;;21.02;;
73456;SDS011;61691;53.072;6.582;2023-10-19T09:38:19;29.92;;;20.67;;
73456;SDS011;61691;53.072;6.582;2023-10-19T09:40:52;19.92;;;8.35;;
73456;SDS011;61691;53.072;6.582;2023-10-19T09:46:11;19.98;;;8.25;;
73456;SDS011;61691;53.072;6.582;2023-10-19T09:48:40;22.40;;;8.23;;
73456;SDS011;61691;53.072;6.582;2023-10-19T09:51:17;20.20;;;7.93;;
73456;SDS011;61691;53.072;6.582;2023-10-19T09:53:51;21.58;;;8.73;;
73456;SDS011;61691;53.072;6.582;2023-10-19T09:56:36;20.80;;;8.32;;
73456;SDS011;61691;53.072;6.582;2023-10-19T09:59:23;24.55;;;8.75;;
73456;SDS011;61691;53.072;6.582;2023-10-19T10:04:41;19.77;;;7.70;;
73456;SDS011;61691;53.072;6.582;2023-10-19T10:07:12;20.15;;;8.05;;
73456;SDS011;61691;53.072;6.582;2023-10-19T10:09:45;20.75;;;8.60;;
73456;SDS011;61691;53.072;6.582;2023-10-19T10:12:33;19.23;;;8.02;;
73456;SDS011;61691;53.072;6.582;2023-10-19T10:15:05;17.88;;;7.72;;
73456;SDS011;61691;53.072;6.582;2023-10-19T10:17:38;19.25;;;7.82;;
73456;SDS011;61691;53.072;6.582;2023-10-19T10:22:43;18.67;;;8.30;;
73456;SDS011;61691;53.072;6.582;2023-10-19T10:25:25;18.60;;;7.65;;
73456;SDS011;61691;53.072;6.582;2023-10-19T10:27:55;19.45;;;7.95;;
73456;SDS011;61691;53.072;6.582;2023-10-19T10:30:22;19.02;;;7.43;;
73456;SDS011;61691;53.072;6.582;2023-10-19T10:32:50;18.95;;;8.13;;
73456;SDS011;61691;53.072;6.582;2023-10-19T10:38:08;19.58;;;7.82;;
73456;SDS011;61691;53.072;6.582;2023-10-19T10:43:11;19.38;;;7.05;;
73456;SDS011;61691;53.072;6.582;2023-10-19T10:45:39;19.17;;;7.63;;
73456;SDS011;61691;53.072;6.582;2023-10-19T10:48:12;20.63;;;7.80;;
73456;SDS011;61691;53.072;6.582;2023-10-19T10:50:39;17.98;;;7.55;;
73456;SDS011;61691;53.072;6.582;2023-10-19T10:53:11;18.02;;;7.30;;
73456;SDS011;61691;53.072;6.582;2023-10-19T10:55:38;19.25;;;7.57;;
73456;SDS011;61691;53.072;6.582;2023-10-19T10:58:06;19.40;;;7.72;;
73456;SDS011;61691;53.072;6.582;2023-10-19T11:00:33;19.80;;;7.65;;
73456;SDS011;61691;53.072;6.582;2023-10-19T11:03:06;18.83;;;7.15;;
73456;SDS011;61691;53.072;6.582;2023-10-19T11:05:34;18.80;;;7.28;;
73456;SDS011;61691;53.072;6.582;2023-10-19T11:08:04;19.13;;;7.35;;
73456;SDS011;61691;53.072;6.582;2023-10-19T11:10:31;20.20;;;7.30;;
73456;SDS011;61691;53.072;6.582;2023-10-19T11:13:05;19.33;;;7.32;;
73456;SDS011;61691;53.072;6.582;2023-10-19T11:15:33;20.50;;;7.80;;
73456;SDS011;61691;53.072;6.582;2023-10-19T11:18:01;19.88;;;7.47;;
73456;SDS011;61691;53.072;6.582;2023-10-19T11:20:28;20.45;;;7.97;;
73456;SDS011;61691;53.072;6.582;2023-10-19T11:22:55;24.35;;;12.35;;
73456;SDS011;61691;53.072;6.582;2023-10-19T11:25:27;19.65;;;9.18;;
73456;SDS011;61691;53.072;6.582;2023-10-19T11:27:56;23.50;;;9.10;;
73456;SDS011;61691;53.072;6.582;2023-10-19T11:32:51;19.98;;;7.50;;
73456;SDS011;61691;53.072;6.582;2023-10-19T11:35:29;18.15;;;7.18;;
73456;SDS011;61691;53.072;6.582;2023-10-19T11:37:58;20.50;;;8.02;;
73456;SDS011;61691;53.072;6.582;2023-10-19T11:40:27;19.40;;;7.28;;
73456;SDS011;61691;53.072;6.582;2023-10-19T11:42:54;20.50;;;8.00;;
73456;SDS011;61691;53.072;6.582;2023-10-19T11:45:27;20.45;;;7.63;;
73456;SDS011;61691;53.072;6.582;2023-10-19T11:47:55;19.85;;;7.88;;
73456;SDS011;61691;53.072;6.582;2023-10-19T11:50:23;19.67;;;7.57;;
73456;SDS011;61691;53.072;6.582;2023-10-19T11:52:51;19.70;;;7.47;;
73456;SDS011;61691;53.072;6.582;2023-10-19T11:55:19;21.33;;;7.40;;
73456;SDS011;61691;53.072;6.582;2023-10-19T11:57:47;20.17;;;7.53;;
73456;SDS011;61691;53.072;6.582;2023-10-19T12:00:14;20.85;;;7.03;;
73456;SDS011;61691;53.072;6.582;2023-10-19T12:02:49;19.77;;;7.57;;
73456;SDS011;61691;53.072;6.582;2023-10-19T12:05:16;21.58;;;7.30;;
73456;SDS011;61691;53.072;6.582;2023-10-19T12:07:43;19.20;;;7.00;;
73456;SDS011;61691;53.072;6.582;2023-10-19T12:10:11;21.55;;;7.47;;
73456;SDS011;61691;53.072;6.582;2023-10-19T12:12:38;19.20;;;6.47;;
73456;SDS011;61691;53.072;6.582;2023-10-19T12:15:25;17.05;;;6.53;;
73456;SDS011;61691;53.072;6.582;2023-10-19T12:17:52;17.83;;;6.05;;
73456;SDS011;61691;53.072;6.582;2023-10-19T12:20:21;16.75;;;6.45;;
73456;SDS011;61691;53.072;6.582;2023-10-19T12:22:51;17.90;;;6.55;;
73456;SDS011;61691;53.072;6.582;2023-10-19T12:25:21;19.42;;;6.80;;
73456;SDS011;61691;53.072;6.582;2023-10-19T12:28:08;17.17;;;6.80;;
73456;SDS011;61691;53.072;6.582;2023-10-19T12:30:40;19.52;;;6.40;;
73456;SDS011;61691;53.072;6.582;2023-10-19T12:33:10;17.05;;;6.70;;
73456;SDS011;61691;53.072;6.582;2023-10-19T12:35:40;17.55;;;6.30;;
73456;SDS011;61691;53.072;6.582;2023-10-19T12:38:11;19.10;;;6.57;;
73456;SDS011;61691;53.072;6.582;2023-10-19T12:40:46;19.77;;;6.82;;
73456;SDS011;61691;53.072;6.582;2023-10-19T12:43:18;21.50;;;6.78;;
73456;SDS011;61691;53.072;6.582;2023-10-19T12:45:51;18.48;;;6.90;;
73456;SDS011;61691;53.072;6.582;2023-10-19T12:50:52;18.27;;;6.18;;
73456;SDS011;61691;53.072;6.582;2023-10-19T12:53:18;17.38;;;6.07;;
73456;SDS011;61691;53.072;6.582;2023-10-19T12:55:47;17.48;;;6.70;;
73456;SDS011;61691;53.072;6.582;2023-10-19T12:58:14;19.52;;;6.65;;
73456;SDS011;61691;53.072;6.582;2023-10-19T13:00:45;18.67;;;6.07;;
73456;SDS011;61691;53.072;6.582;2023-10-19T13:03:15;18.05;;;5.95;;
73456;SDS011;61691;53.072;6.582;2023-10-19T13:05:45;19.83;;;6.82;;
73456;SDS011;61691;53.072;6.582;2023-10-19T13:08:12;18.42;;;6.28;;
73456;SDS011;61691;53.072;6.582;2023-10-19T13:10:40;17.05;;;5.85;;
73456;SDS011;61691;53.072;6.582;2023-10-19T13:13:10;19.00;;;6.50;;
73456;SDS011;61691;53.072;6.582;2023-10-19T13:15:39;19.52;;;6.57;;
73456;SDS011;61691;53.072;6.582;2023-10-19T13:18:08;18.25;;;6.20;;
73456;SDS011;61691;53.072;6.582;2023-10-19T13:20:37;17.98;;;5.82;;
73456;SDS011;61691;53.072;6.582;2023-10-19T13:23:05;17.15;;;5.72;;
73456;SDS011;61691;53.072;6.582;2023-10-19T13:25:38;18.17;;;5.85;;
73456;SDS011;61691;53.072;6.582;2023-10-19T13:28:13;20.88;;;6.32;;
73456;SDS011;61691;53.072;6.582;2023-10-19T13:30:50;16.95;;;5.95;;
73456;SDS011;61691;53.072;6.582;2023-10-19T13:33:20;17.88;;;6.47;;
73456;SDS011;61691;53.072;6.582;2023-10-19T13:35:48;18.13;;;6.30;;
73456;SDS011;61691;53.072;6.582;2023-10-19T13:38:15;19.27;;;6.07;;
73456;SDS011;61691;53.072;6.582;2023-10-19T13:40:43;19.67;;;7.10;;
73456;SDS011;61691;53.072;6.582;2023-10-19T13:43:13;19.20;;;6.88;;
73456;SDS011;61691;53.072;6.582;2023-10-19T13:45:41;21.83;;;7.25;;
73456;SDS011;61691;53.072;6.582;2023-10-19T13:48:10;21.42;;;7.82;;
73456;SDS011;61691;53.072;6.582;2023-10-19T13:50:47;19.52;;;8.02;;
73456;SDS011;61691;53.072;6.582;2023-10-19T13:53:17;21.70;;;8.05;;
73456;SDS011;61691;53.072;6.582;2023-10-19T13:55:45;20.20;;;7.75;;
73456;SDS011;61691;53.072;6.582;2023-10-19T13:58:12;19.80;;;8.38;;
73456;SDS011;61691;53.072;6.582;2023-10-19T14:00:42;21.55;;;9.68;;
73456;SDS011;61691;53.072;6.582;2023-10-19T14:03:10;21.17;;;10.50;;
73456;SDS011;61691;53.072;6.582;2023-10-19T14:05:44;21.65;;;10.82;;
73456;SDS011;61691;53.072;6.582;2023-10-19T14:08:15;21.83;;;11.35;;
73456;SDS011;61691;53.072;6.582;2023-10-19T14:10:44;23.15;;;12.15;;
73456;SDS011;61691;53.072;6.582;2023-10-19T14:13:11;25.27;;;12.73;;
73456;SDS011;61691;53.072;6.582;2023-10-19T14:15:38;25.15;;;13.73;;
73456;SDS011;61691;53.072;6.582;2023-10-19T14:18:06;25.58;;;15.00;;
73456;SDS011;61691;53.072;6.582;2023-10-19T14:20:33;26.35;;;14.48;;
73456;SDS011;61691;53.072;6.582;2023-10-19T14:23:01;27.15;;;14.57;;
73456;SDS011;61691;53.072;6.582;2023-10-19T14:25:31;25.38;;;15.05;;
73456;SDS011;61691;53.072;6.582;2023-10-19T14:28:02;25.85;;;14.35;;
73456;SDS011;61691;53.072;6.582;2023-10-19T14:30:33;29.73;;;16.45;;
73456;SDS011;61691;53.072;6.582;2023-10-19T14:33:00;27.75;;;15.65;;
73456;SDS011;61691;53.072;6.582;2023-10-19T14:35:28;29.20;;;16.33;;
73456;SDS011;61691;53.072;6.582;2023-10-19T14:37:55;26.67;;;14.65;;
73456;SDS011;61691;53.072;6.582;2023-10-19T14:40:23;27.55;;;13.93;;
73456;SDS011;61691;53.072;6.582;2023-10-19T14:42:53;25.10;;;14.90;;
73456;SDS011;61691;53.072;6.582;2023-10-19T14:45:21;26.13;;;14.77;;
73456;SDS011;61691;53.072;6.582;2023-10-19T14:47:59;24.85;;;13.68;;
73456;SDS011;61691;53.072;6.582;2023-10-19T14:50:28;26.38;;;13.70;;
73456;SDS011;61691;53.072;6.582;2023-10-19T14:52:56;26.33;;;14.38;;
73456;SDS011;61691;53.072;6.582;2023-10-19T14:55:23;24.25;;;12.50;;
73456;SDS011;61691;53.072;6.582;2023-10-19T14:57:51;26.25;;;13.80;;
73456;SDS011;61691;53.072;6.582;2023-10-19T15:00:22;25.10;;;13.43;;
73456;SDS011;61691;53.072;6.582;2023-10-19T15:02:53;26.13;;;13.05;;
73456;SDS011;61691;53.072;6.582;2023-10-19T15:05:25;23.77;;;12.32;;
73456;SDS011;61691;53.072;6.582;2023-10-19T15:07:54;25.90;;;12.98;;